createdAt,value
2023-10-15T00:01:43.911Z,77.98
2023-10-15T00:03:48.569Z,78.81
2023-10-15T00:05:51.505Z,78.55
2023-10-15T00:07:54.533Z,78.47
2023-10-15T00:09:57.183Z,78.55
2023-10-15T00:12:00.117Z,78.49
2023-10-15T00:14:06.837Z,78.56
2023-10-15T00:16:09.489Z,78.28
2023-10-15T00:18:12.323Z,78.26
2023-10-15T00:20:19.790Z,78.56
2023-10-15T00:22:23.246Z,78.25
2023-10-15T00:24:28.147Z,78.47
2023-10-15T00:26:31.611Z,78.36
2023-10-15T00:28:34.935Z,78.40
2023-10-15T00:30:38.958Z,78.40
2023-10-15T00:32:47.312Z,78.86
2023-10-15T00:34:51.013Z,78.00
2023-10-15T00:36:57.467Z,78.00
2023-10-15T00:39:00.150Z,77.96
2023-10-15T00:41:09.125Z,78.21
2023-10-15T00:43:16.250Z,78.38
2023-10-15T00:45:21.227Z,78.11
2023-10-15T00:47:24.620Z,78.24
2023-10-15T00:49:27.886Z,78.42
2023-10-15T00:51:30.549Z,78.70
2023-10-15T00:53:34.527Z,78.31
2023-10-15T00:55:43.879Z,78.30
2023-10-15T00:57:57.558Z,78.35
2023-10-15T01:00:01.139Z,77.97
2023-10-15T01:02:05.338Z,77.84
2023-10-15T01:04:09.673Z,78.30
2023-10-15T01:06:15.832Z,78.46
2023-10-15T01:08:18.744Z,78.27
2023-10-15T01:10:34.124Z,78.87
2023-10-15T01:12:36.968Z,78.38
2023-10-15T01:14:45.835Z,78.17
2023-10-15T01:16:48.727Z,78.30
2023-10-15T01:19:18.893Z,78.25
2023-10-15T01:21:21.649Z,78.28
2023-10-15T01:23:33.335Z,78.26
2023-10-15T01:25:47.423Z,78.41
2023-10-15T01:27:50.365Z,78.52
2023-10-15T01:29:53.244Z,77.96
2023-10-15T01:32:09.195Z,78.84
2023-10-15T01:34:14.420Z,78.60
2023-10-15T01:36:29.443Z,78.37
2023-10-15T01:38:32.505Z,78.38
2023-10-15T01:40:38.864Z,78.13
2023-10-15T01:42:43.050Z,77.83
2023-10-15T01:44:49.799Z,78.33
2023-10-15T01:47:05.243Z,78.81
2023-10-15T01:49:09.325Z,78.35
2023-10-15T01:51:13.828Z,78.22
2023-10-15T01:53:18.042Z,78.53
2023-10-15T01:55:20.755Z,78.42
2023-10-15T01:57:24.673Z,78.15
2023-10-15T01:59:28.682Z,78.13
2023-10-15T02:01:38.881Z,77.91
2023-10-15T02:03:46.467Z,77.91
2023-10-15T02:05:49.538Z,77.32
2023-10-15T02:07:52.936Z,77.51
2023-10-15T02:09:56.359Z,77.78
2023-10-15T02:11:58.981Z,77.88
2023-10-15T02:14:02.095Z,77.67
2023-10-15T02:16:11.286Z,77.67
2023-10-15T02:18:19.344Z,77.49
2023-10-15T02:20:43.625Z,77.55
2023-10-15T02:22:48.678Z,77.42
2023-10-15T02:24:53.768Z,76.85
2023-10-15T02:26:56.804Z,77.44
2023-10-15T02:29:08.584Z,77.45
2023-10-15T02:31:12.054Z,77.19
2023-10-15T02:33:18.508Z,77.38
2023-10-15T02:35:25.637Z,76.66
2023-10-15T02:37:29.662Z,76.76
2023-10-15T02:39:39.963Z,77.27
2023-10-15T02:41:43.372Z,76.82
2023-10-15T02:43:58.521Z,77.38
2023-10-15T02:46:02.025Z,77.13
2023-10-15T02:48:12.296Z,76.64
2023-10-15T02:50:19.878Z,76.67
2023-10-15T02:52:25.010Z,76.43
2023-10-15T02:54:38.180Z,76.70
2023-10-15T02:56:42.756Z,76.70
2023-10-15T02:58:47.076Z,76.91
2023-10-15T03:00:53.573Z,76.92
2023-10-15T03:02:57.324Z,76.57
2023-10-15T03:05:07.950Z,77.35
2023-10-15T03:07:20.995Z,77.44
2023-10-15T03:09:27.714Z,77.27
2023-10-15T03:11:34.769Z,77.65
2023-10-15T03:13:46.458Z,77.76
2023-10-15T03:15:51.671Z,77.18
2023-10-15T03:17:54.564Z,77.68
2023-10-15T03:19:57.855Z,77.53
2023-10-15T03:22:02.117Z,77.20
2023-10-15T03:24:06.516Z,77.34
2023-10-15T03:26:11.985Z,77.61
2023-10-15T03:28:15.082Z,77.51
2023-10-15T03:30:23.796Z,77.54
2023-10-15T03:32:33.663Z,77.49
2023-10-15T03:34:37.570Z,77.48
2023-10-15T03:36:49.036Z,77.29
2023-10-15T03:38:52.620Z,78.50
2023-10-15T03:41:12.809Z,77.76
2023-10-15T03:43:22.443Z,77.78
2023-10-15T03:45:28.672Z,78.33
2023-10-15T03:47:31.452Z,78.35
2023-10-15T03:49:34.482Z,77.82
2023-10-15T03:51:43.128Z,78.57
2023-10-15T03:53:46.260Z,78.09
2023-10-15T03:55:53.034Z,78.61
2023-10-15T03:57:56.183Z,77.97
2023-10-15T03:59:59.606Z,78.17
2023-10-15T04:02:03.849Z,78.67
2023-10-15T04:04:07.085Z,78.40
2023-10-15T04:06:11.546Z,78.67
2023-10-15T04:08:20.609Z,78.12
2023-10-15T04:10:36.130Z,78.39
2023-10-15T04:12:42.404Z,77.43
2023-10-15T04:14:45.386Z,78.04
2023-10-15T04:16:48.997Z,77.69
2023-10-15T04:18:52.366Z,77.25
2023-10-15T04:20:56.946Z,76.98
2023-10-15T04:23:00.297Z,76.89
2023-10-15T04:25:07.966Z,76.68
2023-10-15T04:27:26.185Z,76.45
2023-10-15T04:29:32.732Z,76.40
2023-10-15T04:31:35.585Z,76.37
2023-10-15T04:33:38.792Z,76.04
2023-10-15T04:35:45.617Z,76.07
2023-10-15T04:37:53.801Z,76.23
2023-10-15T04:40:10.805Z,76.46
2023-10-15T04:42:23.242Z,75.92
2023-10-15T04:44:33.053Z,75.83
2023-10-15T04:46:42.771Z,76.15
2023-10-15T04:48:48.466Z,76.15
2023-10-15T04:50:51.468Z,76.02
2023-10-15T04:52:54.453Z,75.49
2023-10-15T04:54:57.547Z,75.88
2023-10-15T04:57:00.348Z,75.57
2023-10-15T04:59:03.100Z,76.03
2023-10-15T05:01:06.526Z,75.82
2023-10-15T05:03:11.119Z,76.32
2023-10-15T05:05:15.049Z,76.58
2023-10-15T05:07:18.104Z,76.10
2023-10-15T05:09:24.078Z,76.17
2023-10-15T05:11:26.877Z,76.07
2023-10-15T05:13:29.729Z,76.40
2023-10-15T05:15:34.445Z,76.17
2023-10-15T05:17:37.710Z,76.26
2023-10-15T05:19:41.631Z,76.38
2023-10-15T05:21:46.295Z,76.11
2023-10-15T05:23:48.857Z,76.74
2023-10-15T05:25:51.730Z,76.20
2023-10-15T05:27:54.690Z,76.24
2023-10-15T05:29:58.809Z,76.32
2023-10-15T05:32:01.698Z,76.50
2023-10-15T05:34:04.579Z,76.34
2023-10-15T05:36:08.105Z,76.90
2023-10-15T05:38:11.831Z,76.75
2023-10-15T05:40:14.736Z,77.36
2023-10-15T05:42:18.108Z,77.16
2023-10-15T05:44:20.920Z,77.38
2023-10-15T05:46:23.977Z,77.10
2023-10-15T05:48:27.629Z,76.74
2023-10-15T05:50:31.310Z,76.48
2023-10-15T05:52:34.879Z,76.46
2023-10-15T05:54:37.596Z,77.27
2023-10-15T05:56:41.134Z,77.52
2023-10-15T05:58:44.137Z,76.59
2023-10-15T06:00:47.364Z,76.16
2023-10-15T06:02:52.413Z,76.29
2023-10-15T06:04:55.291Z,75.79
2023-10-15T06:06:59.730Z,75.82
2023-10-15T06:09:02.433Z,75.95
2023-10-15T06:11:04.885Z,76.16
2023-10-15T06:13:07.633Z,76.15
2023-10-15T06:15:16.420Z,75.51
2023-10-15T06:17:22.651Z,76.19
2023-10-15T06:19:26.793Z,76.74
2023-10-15T06:21:29.763Z,75.75
2023-10-15T06:23:33.179Z,75.62
2023-10-15T06:25:37.104Z,75.91
2023-10-15T06:27:43.267Z,75.40
2023-10-15T06:29:46.320Z,75.27
2023-10-15T06:31:49.525Z,75.24
2023-10-15T06:33:52.499Z,75.62
2023-10-15T06:35:56.994Z,75.45
2023-10-15T06:38:01.612Z,74.13
2023-10-15T06:40:18.883Z,74.12
2023-10-15T06:42:24.700Z,74.40
2023-10-15T06:44:27.479Z,73.90
2023-10-15T06:46:31.654Z,74.28
2023-10-15T06:48:39.819Z,73.08
2023-10-15T06:50:43.505Z,72.96
2023-10-15T06:52:46.598Z,71.77
2023-10-15T06:54:49.952Z,72.24
2023-10-15T06:56:52.667Z,72.65
2023-10-15T06:58:56.782Z,73.10
2023-10-15T07:01:00.794Z,73.87
2023-10-15T07:03:03.896Z,73.47
2023-10-15T07:05:07.625Z,73.54
2023-10-15T07:07:10.899Z,71.98
2023-10-15T07:09:15.448Z,71.96
2023-10-15T07:11:18.096Z,72.45
2023-10-15T07:13:21.715Z,71.53
2023-10-15T07:15:25.845Z,70.12
2023-10-15T07:17:29.620Z,70.84
2023-10-15T07:19:32.854Z,69.99
2023-10-15T07:21:35.527Z,70.39
2023-10-15T07:23:38.288Z,70.24
2023-10-15T07:25:40.939Z,68.79
2023-10-15T07:27:47.436Z,68.90
2023-10-15T07:29:50.143Z,69.78
2023-10-15T07:31:53.020Z,68.85
2023-10-15T07:33:55.879Z,70.27
2023-10-15T07:36:00.826Z,69.82
2023-10-15T07:38:04.620Z,69.97
2023-10-15T07:40:16.967Z,69.67
2023-10-15T07:42:20.457Z,68.92
2023-10-15T07:44:23.310Z,68.59
2023-10-15T07:46:26.710Z,69.10
2023-10-15T07:48:29.589Z,69.02
2023-10-15T07:50:36.099Z,67.31
2023-10-15T07:52:41.866Z,67.18
2023-10-15T07:54:45.259Z,67.17
2023-10-15T07:56:48.677Z,66.93
2023-10-15T07:58:52.734Z,67.54
2023-10-15T08:01:09.164Z,66.49
2023-10-15T08:03:14.739Z,66.45
2023-10-15T08:05:17.999Z,66.31
2023-10-15T08:07:22.247Z,66.17
2023-10-15T08:09:25.453Z,64.89
2023-10-15T08:11:28.527Z,64.88
2023-10-15T08:13:31.789Z,65.87
2023-10-15T08:15:35.498Z,64.63
2023-10-15T08:17:39.208Z,64.84
2023-10-15T08:19:42.399Z,64.24
2023-10-15T08:21:45.634Z,62.31
2023-10-15T08:23:48.520Z,61.83
2023-10-15T08:25:52.790Z,61.87
2023-10-15T08:27:55.800Z,62.65
2023-10-15T08:29:59.077Z,60.23
2023-10-15T08:32:04.135Z,62.16
2023-10-15T08:34:06.886Z,60.22
2023-10-15T08:36:10.356Z,60.75
2023-10-15T08:38:14.262Z,58.63
2023-10-15T08:40:19.412Z,59.33
2023-10-15T08:42:32.504Z,59.00
2023-10-15T08:44:37.677Z,59.12
2023-10-15T08:46:43.346Z,56.43
2023-10-15T08:48:49.795Z,56.91
2023-10-15T08:50:56.495Z,53.71
2023-10-15T08:53:01.914Z,53.42
2023-10-15T08:55:08.542Z,52.93
2023-10-15T08:57:11.572Z,54.33
2023-10-15T08:59:15.559Z,55.64
2023-10-15T09:01:19.144Z,54.36
2023-10-15T09:03:25.438Z,53.41
2023-10-15T09:05:42.317Z,53.54
2023-10-15T09:07:45.859Z,51.42
2023-10-15T09:09:51.117Z,51.64
2023-10-15T09:11:56.155Z,52.08
2023-10-15T09:14:00.289Z,52.02
2023-10-15T09:16:03.564Z,51.03
2023-10-15T09:18:07.050Z,52.11
2023-10-15T09:20:12.024Z,52.27
2023-10-15T09:22:17.741Z,53.51
2023-10-15T09:24:22.453Z,52.59
2023-10-15T09:26:25.664Z,52.79
2023-10-15T09:28:30.157Z,53.99
2023-10-15T09:30:33.940Z,51.88
2023-10-15T09:32:36.989Z,51.50
2023-10-15T09:34:40.668Z,53.26
2023-10-15T09:36:44.083Z,52.89
2023-10-15T09:38:47.556Z,53.08
2023-10-15T09:40:50.763Z,51.34
2023-10-15T09:42:56.729Z,51.27
2023-10-15T09:45:04.504Z,51.71
2023-10-15T09:47:09.885Z,51.00
2023-10-15T09:49:15.090Z,50.84
2023-10-15T09:51:19.139Z,50.31
2023-10-15T09:53:24.169Z,48.78
2023-10-15T09:55:33.997Z,49.06
2023-10-15T09:57:37.212Z,49.39
2023-10-15T09:59:39.976Z,49.70
2023-10-15T10:01:48.536Z,49.29
2023-10-15T10:04:07.013Z,49.44
2023-10-15T10:06:33.572Z,49.51
2023-10-15T10:09:05.587Z,50.35
2023-10-15T10:11:18.191Z,49.83
2023-10-15T10:13:35.919Z,52.18
2023-10-15T10:15:56.671Z,53.43
2023-10-15T10:18:01.175Z,50.17
2023-10-15T10:20:23.970Z,50.00
2023-10-15T10:22:31.250Z,49.49
2023-10-15T10:24:47.294Z,50.96
2023-10-15T10:26:55.755Z,47.66
2023-10-15T10:29:01.488Z,49.71
2023-10-15T10:31:06.810Z,49.29
2023-10-15T10:33:10.936Z,49.44
2023-10-15T10:35:22.051Z,48.49
2023-10-15T10:37:25.253Z,48.60
2023-10-15T10:39:45.448Z,49.56
2023-10-15T10:41:52.886Z,47.96
2023-10-15T10:44:10.294Z,47.76
2023-10-15T10:46:24.648Z,50.10
2023-10-15T10:48:29.571Z,49.64
2023-10-15T10:50:47.023Z,47.56
2023-10-15T10:53:13.591Z,47.52
2023-10-15T10:55:35.402Z,47.15
2023-10-15T10:57:44.386Z,46.55
2023-10-15T10:59:47.854Z,45.77
2023-10-15T11:01:52.309Z,45.03
2023-10-15T11:03:55.068Z,46.02
2023-10-15T11:05:57.943Z,46.08
2023-10-15T11:08:01.047Z,47.43
2023-10-15T11:10:07.571Z,46.51
2023-10-15T11:12:11.209Z,46.57
2023-10-15T11:14:15.037Z,46.86
2023-10-15T11:16:18.590Z,46.87
2023-10-15T11:18:24.876Z,46.76
2023-10-15T11:20:29.127Z,46.31
2023-10-15T11:22:32.201Z,46.31
2023-10-15T11:24:35.246Z,45.25
2023-10-15T11:26:43.384Z,45.29
2023-10-15T11:28:47.248Z,45.91
2023-10-15T11:30:51.000Z,45.66
2023-10-15T11:32:53.681Z,45.30
2023-10-15T11:34:56.682Z,44.55
2023-10-15T11:36:59.494Z,45.59
2023-10-15T11:39:09.927Z,46.37
2023-10-15T11:41:14.597Z,45.38
2023-10-15T11:43:23.636Z,44.51
2023-10-15T11:45:33.050Z,44.22
2023-10-15T11:47:37.079Z,43.85
2023-10-15T11:49:40.742Z,44.55
2023-10-15T11:51:43.838Z,44.27
2023-10-15T11:53:48.358Z,45.69
2023-10-15T11:55:56.259Z,45.48
2023-10-15T11:58:12.230Z,45.28
2023-10-15T12:00:24.761Z,45.73
2023-10-15T12:02:29.773Z,45.01
2023-10-15T12:04:34.431Z,46.00
2023-10-15T12:06:37.396Z,45.71
2023-10-15T12:08:40.649Z,45.55
2023-10-15T12:10:47.102Z,45.30
2023-10-15T12:12:51.494Z,46.24
2023-10-15T12:14:54.016Z,46.24
2023-10-15T12:16:56.982Z,45.88
2023-10-15T12:19:00.056Z,45.29
2023-10-15T12:21:02.982Z,43.54
2023-10-15T12:23:05.905Z,42.63
2023-10-15T12:25:09.208Z,42.83
2023-10-15T12:27:12.771Z,43.66
2023-10-15T12:29:28.188Z,42.79
2023-10-15T12:31:35.105Z,44.20
2023-10-15T12:33:40.547Z,45.48
2023-10-15T12:35:46.184Z,44.49
2023-10-15T12:37:51.481Z,44.39
2023-10-15T12:39:54.570Z,44.06
2023-10-15T12:41:58.286Z,44.05
2023-10-15T12:44:01.845Z,43.82
2023-10-15T12:46:05.610Z,42.62
2023-10-15T12:48:10.626Z,44.39
2023-10-15T12:50:17.049Z,45.33
2023-10-15T12:52:20.689Z,43.49
2023-10-15T12:54:23.971Z,43.54
2023-10-15T12:56:27.145Z,44.46
2023-10-15T12:58:30.011Z,44.34
2023-10-15T13:00:34.538Z,44.78
2023-10-15T13:02:38.311Z,45.50
2023-10-15T13:04:41.505Z,45.17
2023-10-15T13:06:45.077Z,45.51
2023-10-15T13:08:47.867Z,44.77
2023-10-15T13:10:51.616Z,44.07
2023-10-15T13:12:56.352Z,43.61
2023-10-15T13:15:00.088Z,42.51
2023-10-15T13:17:03.246Z,41.82
2023-10-15T13:19:06.257Z,43.85
2023-10-15T13:21:12.376Z,44.15
2023-10-15T13:23:15.360Z,44.54
2023-10-15T13:25:18.837Z,42.42
2023-10-15T13:27:22.156Z,43.37
2023-10-15T13:29:25.486Z,42.78
2023-10-15T13:31:28.967Z,42.16
2023-10-15T13:33:32.670Z,44.00
2023-10-15T13:35:36.923Z,43.72
2023-10-15T13:37:41.525Z,45.61
2023-10-15T13:39:44.305Z,45.09
2023-10-15T13:41:48.914Z,44.25
2023-10-15T13:43:52.242Z,44.95
2023-10-15T13:45:54.953Z,46.02
2023-10-15T13:47:57.950Z,45.98
2023-10-15T13:50:01.158Z,44.26
2023-10-15T13:52:05.744Z,44.21
2023-10-15T13:54:08.808Z,45.69
2023-10-15T13:56:12.088Z,45.90
2023-10-15T13:58:14.900Z,45.88
2023-10-15T14:00:18.379Z,45.01
2023-10-15T14:02:21.329Z,44.73
2023-10-15T14:04:24.723Z,44.42
2023-10-15T14:06:29.211Z,44.23
2023-10-15T14:08:31.880Z,45.65
2023-10-15T14:10:34.533Z,45.00
2023-10-15T14:12:37.427Z,45.48
2023-10-15T14:14:40.971Z,46.85
2023-10-15T14:16:44.053Z,46.25
2023-10-15T14:18:49.244Z,47.27
2023-10-15T14:20:52.565Z,46.96
2023-10-15T14:22:59.309Z,47.17
2023-10-15T14:25:02.821Z,47.30
2023-10-15T14:27:06.609Z,48.14
2023-10-15T14:29:09.294Z,48.06
2023-10-15T14:31:13.551Z,49.87
2023-10-15T14:33:16.530Z,49.23
2023-10-15T14:35:20.511Z,49.16
2023-10-15T14:37:23.653Z,49.25
2023-10-15T14:39:27.730Z,48.82
2023-10-15T14:41:31.272Z,48.78
2023-10-15T14:43:34.691Z,48.84
2023-10-15T14:45:39.036Z,50.14
2023-10-15T14:47:42.928Z,48.85
2023-10-15T14:49:47.925Z,50.40
2023-10-15T14:51:51.115Z,50.40
2023-10-15T14:53:54.713Z,49.35
2023-10-15T14:55:57.872Z,47.96
2023-10-15T14:58:00.563Z,48.96
2023-10-15T15:00:06.193Z,50.08
2023-10-15T15:02:12.329Z,49.98
2023-10-15T15:04:17.925Z,51.22
2023-10-15T15:06:21.034Z,50.25
2023-10-15T15:08:24.189Z,49.90
2023-10-15T15:10:27.308Z,49.47
2023-10-15T15:12:30.150Z,48.72
2023-10-15T15:14:33.258Z,50.23
2023-10-15T15:16:36.359Z,49.62
2023-10-15T15:18:39.184Z,50.82
2023-10-15T15:20:42.281Z,51.45
2023-10-15T15:22:45.104Z,51.34
2023-10-15T15:24:48.113Z,52.13
2023-10-15T15:26:51.225Z,52.23
2023-10-15T15:28:54.398Z,52.03
2023-10-15T15:30:57.533Z,52.37
2023-10-15T15:33:02.482Z,52.83
2023-10-15T15:35:09.250Z,52.84
2023-10-15T15:37:11.982Z,53.42
2023-10-15T15:39:14.627Z,53.75
2023-10-15T15:41:17.635Z,53.85
2023-10-15T15:43:22.791Z,54.05
2023-10-15T15:45:26.469Z,54.16
2023-10-15T15:47:29.588Z,53.66
2023-10-15T15:49:32.781Z,54.04
2023-10-15T15:51:35.728Z,54.26
2023-10-15T15:53:38.427Z,54.71
2023-10-15T15:55:44.817Z,54.99
2023-10-15T15:57:48.067Z,55.08
2023-10-15T15:59:52.901Z,55.30
2023-10-15T16:01:56.225Z,55.42
2023-10-15T16:04:03.074Z,55.53
2023-10-15T16:06:06.303Z,55.56
2023-10-15T16:08:10.701Z,56.06
2023-10-15T16:10:13.758Z,56.26
2023-10-15T16:12:17.107Z,56.45
2023-10-15T16:14:20.360Z,56.62
2023-10-15T16:16:23.577Z,57.24
2023-10-15T16:18:28.612Z,57.55
2023-10-15T16:20:33.976Z,57.22
2023-10-15T16:22:38.224Z,57.74
2023-10-15T16:24:46.869Z,57.75
2023-10-15T16:26:52.682Z,57.69
2023-10-15T16:28:56.154Z,58.41
2023-10-15T16:30:59.836Z,58.51
2023-10-15T16:33:04.316Z,59.00
2023-10-15T16:35:18.156Z,59.07
2023-10-15T16:37:21.282Z,59.75
2023-10-15T16:39:24.106Z,60.42
2023-10-15T16:41:27.342Z,60.59
2023-10-15T16:43:34.478Z,60.24
2023-10-15T16:45:42.622Z,60.58
2023-10-15T16:47:46.037Z,60.59
2023-10-15T16:49:49.284Z,60.28
2023-10-15T16:51:53.230Z,60.87
2023-10-15T16:53:56.124Z,61.21
2023-10-15T16:55:59.803Z,61.52
2023-10-15T16:58:03.999Z,61.86
2023-10-15T17:00:10.897Z,62.35
2023-10-15T17:02:13.703Z,62.40
2023-10-15T17:04:17.538Z,62.70
2023-10-15T17:06:20.963Z,62.82
2023-10-15T17:08:23.937Z,63.31
2023-10-15T17:10:27.408Z,62.99
2023-10-15T17:12:30.489Z,63.62
2023-10-15T17:14:33.761Z,63.29
2023-10-15T17:16:36.941Z,63.35
2023-10-15T17:18:40.346Z,63.83
2023-10-15T17:20:44.373Z,63.39
2023-10-15T17:22:49.565Z,63.37
2023-10-15T17:24:53.007Z,63.56
2023-10-15T17:26:59.816Z,63.79
2023-10-15T17:29:05.910Z,63.88
2023-10-15T17:31:09.070Z,63.84
2023-10-15T17:33:13.455Z,63.89
2023-10-15T17:35:17.553Z,64.08
2023-10-15T17:37:21.738Z,64.36
2023-10-15T17:39:30.005Z,64.69
2023-10-15T17:41:33.460Z,64.35
2023-10-15T17:43:36.933Z,64.40
2023-10-15T17:45:39.869Z,64.83
2023-10-15T17:47:42.866Z,64.04
2023-10-15T17:49:46.437Z,64.76
2023-10-15T17:51:50.471Z,64.01
2023-10-15T17:53:53.662Z,64.53
2023-10-15T17:55:59.701Z,64.60
2023-10-15T17:58:03.872Z,64.74
2023-10-15T18:00:13.476Z,65.94
2023-10-15T18:02:16.439Z,66.16
2023-10-15T18:04:19.730Z,66.34
2023-10-15T18:06:24.359Z,66.56
2023-10-15T18:08:27.469Z,66.01
2023-10-15T18:10:30.420Z,65.79
2023-10-15T18:12:33.644Z,66.12
2023-10-15T18:14:38.270Z,65.49
2023-10-15T18:16:41.742Z,65.98
2023-10-15T18:18:44.924Z,65.82
2023-10-15T18:20:48.144Z,66.36
2023-10-15T18:22:51.491Z,66.10
2023-10-15T18:24:55.164Z,66.36
2023-10-15T18:26:58.238Z,66.19
2023-10-15T18:29:01.917Z,66.20
2023-10-15T18:31:08.287Z,66.08
2023-10-15T18:33:12.467Z,65.73
2023-10-15T18:35:18.622Z,66.44
2023-10-15T18:37:22.844Z,66.53
2023-10-15T18:39:26.438Z,66.39
2023-10-15T18:41:29.384Z,66.27
2023-10-15T18:43:36.289Z,65.83
2023-10-15T18:45:39.154Z,66.25
2023-10-15T18:47:42.799Z,66.62
2023-10-15T18:49:46.301Z,67.18
2023-10-15T18:51:49.486Z,67.51
2023-10-15T18:53:52.638Z,68.03
2023-10-15T18:55:55.609Z,68.47
2023-10-15T18:57:59.174Z,67.99
2023-10-15T19:00:04.880Z,69.00
2023-10-15T19:02:08.228Z,68.82
2023-10-15T19:04:11.530Z,69.16
2023-10-15T19:06:14.947Z,69.01
2023-10-15T19:08:17.973Z,68.86
2023-10-15T19:10:20.949Z,69.42
2023-10-15T19:12:24.226Z,69.17
2023-10-15T19:14:27.444Z,70.30
2023-10-15T19:16:31.364Z,69.71
2023-10-15T19:18:35.148Z,69.93
2023-10-15T19:20:42.069Z,70.23
2023-10-15T19:22:45.321Z,70.14
2023-10-15T19:24:48.537Z,70.00
2023-10-15T19:26:53.147Z,70.39
2023-10-15T19:28:56.514Z,70.01
2023-10-15T19:31:00.331Z,70.57
2023-10-15T19:33:03.776Z,70.78
2023-10-15T19:35:07.120Z,70.69
2023-10-15T19:37:11.989Z,71.11
2023-10-15T19:39:17.369Z,70.73
2023-10-15T19:41:20.827Z,71.34
2023-10-15T19:43:23.933Z,71.51
2023-10-15T19:45:27.953Z,71.96
2023-10-15T19:47:32.623Z,72.13
2023-10-15T19:49:36.334Z,71.67
2023-10-15T19:51:42.756Z,71.60
2023-10-15T19:53:45.928Z,72.01
2023-10-15T19:55:48.681Z,72.07
2023-10-15T19:57:55.431Z,72.07
2023-10-15T19:59:59.650Z,71.63
2023-10-15T20:02:03.165Z,71.46
2023-10-15T20:04:09.416Z,71.49
2023-10-15T20:06:13.048Z,71.31
2023-10-15T20:08:16.661Z,71.39
2023-10-15T20:10:19.470Z,71.82
2023-10-15T20:12:23.976Z,72.25
2023-10-15T20:14:30.559Z,72.13
2023-10-15T20:16:34.001Z,71.54
2023-10-15T20:18:37.382Z,71.74
2023-10-15T20:20:43.242Z,71.88
2023-10-15T20:22:47.311Z,71.37
2023-10-15T20:24:50.725Z,71.39
2023-10-15T20:26:53.539Z,71.10
2023-10-15T20:28:56.183Z,71.79
2023-10-15T20:30:59.862Z,71.15
2023-10-15T20:33:02.879Z,70.99
2023-10-15T20:35:06.347Z,71.20
2023-10-15T20:37:09.215Z,71.20
2023-10-15T20:39:19.804Z,70.85
2023-10-15T20:41:22.997Z,71.51
2023-10-15T20:43:25.841Z,71.38
2023-10-15T20:45:29.004Z,71.63
2023-10-15T20:47:31.784Z,71.26
2023-10-15T20:49:34.682Z,72.18
2023-10-15T20:51:37.899Z,72.17
2023-10-15T20:53:41.245Z,72.02
2023-10-15T20:55:44.423Z,71.28
2023-10-15T20:57:48.093Z,71.71
2023-10-15T20:59:50.962Z,71.49
2023-10-15T21:01:54.000Z,71.36
2023-10-15T21:03:57.150Z,71.40
2023-10-15T21:06:03.052Z,71.30
2023-10-15T21:08:08.212Z,70.95
2023-10-15T21:10:13.248Z,71.53
2023-10-15T21:12:17.081Z,71.71
2023-10-15T21:14:20.116Z,72.15
2023-10-15T21:16:23.151Z,71.86
2023-10-15T21:18:26.449Z,71.42
2023-10-15T21:20:29.154Z,71.46
2023-10-15T21:22:32.136Z,71.52
2023-10-15T21:24:36.731Z,71.10
2023-10-15T21:26:42.561Z,71.36
2023-10-15T21:28:45.260Z,71.89
2023-10-15T21:30:47.760Z,71.56
2023-10-15T21:32:51.070Z,71.74
2023-10-15T21:34:54.167Z,72.27
2023-10-15T21:37:00.881Z,72.10
2023-10-15T21:39:04.787Z,71.86
2023-10-15T21:41:07.870Z,72.19
2023-10-15T21:43:10.998Z,72.45
2023-10-15T21:45:14.650Z,72.37
2023-10-15T21:47:18.048Z,72.10
2023-10-15T21:49:21.287Z,72.11
2023-10-15T21:51:24.031Z,72.28
2023-10-15T21:53:26.490Z,72.44
2023-10-15T21:55:32.190Z,72.38
2023-10-15T21:57:35.136Z,72.05
2023-10-15T21:59:37.825Z,72.45
2023-10-15T22:01:40.863Z,72.27
2023-10-15T22:03:46.100Z,72.50
2023-10-15T22:05:49.745Z,73.03
2023-10-15T22:07:54.242Z,72.68
2023-10-15T22:09:56.858Z,72.84
2023-10-15T22:11:59.339Z,72.57
2023-10-15T22:14:02.115Z,72.96
2023-10-15T22:16:09.578Z,73.34
2023-10-15T22:18:16.795Z,73.25
2023-10-15T22:20:23.526Z,73.86
2023-10-15T22:22:26.733Z,73.84
2023-10-15T22:24:30.792Z,73.86
2023-10-15T22:26:33.182Z,74.01
2023-10-15T22:28:38.571Z,74.40
2023-10-15T22:30:43.005Z,74.31
2023-10-15T22:32:49.847Z,75.18
2023-10-15T22:34:52.606Z,75.15
2023-10-15T22:36:55.579Z,74.94
2023-10-15T22:38:58.204Z,74.83
2023-10-15T22:41:01.166Z,74.87
2023-10-15T22:43:04.197Z,75.17
2023-10-15T22:45:11.704Z,75.26
2023-10-15T22:47:15.623Z,74.80
2023-10-15T22:49:21.067Z,74.60
2023-10-15T22:51:24.050Z,74.67
2023-10-15T22:53:27.892Z,74.60
2023-10-15T22:55:31.543Z,74.36
2023-10-15T22:57:34.370Z,74.33
2023-10-15T22:59:37.907Z,74.34
2023-10-15T23:01:40.852Z,74.05
2023-10-15T23:03:43.761Z,73.96
2023-10-15T23:05:47.316Z,73.72
2023-10-15T23:07:51.044Z,73.59
2023-10-15T23:09:54.305Z,73.97
2023-10-15T23:12:02.398Z,74.16
2023-10-15T23:14:07.693Z,74.53
2023-10-15T23:16:16.647Z,74.52
2023-10-15T23:18:23.040Z,74.81
2023-10-15T23:20:36.141Z,75.76
2023-10-15T23:22:38.590Z,75.55
2023-10-15T23:24:41.604Z,76.22
2023-10-15T23:26:45.352Z,76.55
2023-10-15T23:28:48.472Z,76.62
2023-10-15T23:30:53.526Z,76.40
2023-10-15T23:33:01.516Z,76.56
2023-10-15T23:35:04.848Z,76.44
2023-10-15T23:37:07.893Z,76.42
2023-10-15T23:39:17.959Z,75.92
2023-10-15T23:41:23.526Z,75.60
2023-10-15T23:43:27.631Z,75.46
2023-10-15T23:45:30.849Z,75.80
2023-10-15T23:47:35.089Z,75.59
2023-10-15T23:49:37.564Z,75.46
2023-10-15T23:51:42.247Z,75.44
2023-10-15T23:53:45.897Z,76.23
2023-10-15T23:55:50.218Z,76.54
2023-10-15T23:57:52.674Z,76.06
2023-10-15T23:59:55.445Z,75.49
